Albion, Michigan
Current Conditions -  °F | °C
As of 1:33 AM on Friday 31 Oct 2014 (Local Time) from KRMY Reporting Station
Overcast Overcast  
Wind Chill:   Ceiling: 6000
Heat Index:   Visibility: 10mi
Dew Point:   Wind: 5mph
Humidity: 74%   Direction: 220°SW
Pressure: 29.98"   Gusts: NA
Location:  42.25°N, 84.75°W
Report Text: KRMY 310533Z AUTO 22004KT 10SM BKN060 OVC070 06/02 A2998 RMK AO2 T00640020
Loading
Personal Weather Stations






























Interactive Weather Map
Tropical Storm Tracking
New forecast layout! Learn more

10-Day Weather Forecast

Advertisements
Track Severe Weather on mobile